sensor_id;sensor_type;location;lat;lon;timestamp;temperature;humidity
57444;DHT22;43289;52.962;6.196;2023-07-22T00:37:47;13.60;99.90
57444;DHT22;43289;52.962;6.196;2023-07-22T00:47:34;12.70;99.90
57444;DHT22;43289;52.962;6.196;2023-07-22T00:50:03;12.50;99.90
57444;DHT22;43289;52.962;6.196;2023-07-22T00:52:29;12.40;99.90
57444;DHT22;43289;52.962;6.196;2023-07-22T00:57:23;12.40;99.90
57444;DHT22;43289;52.962;6.196;2023-07-22T00:59:49;12.40;99.90
57444;DHT22;43289;52.962;6.196;2023-07-22T01:04:41;12.30;99.90
57444;DHT22;43289;52.962;6.196;2023-07-22T01:07:07;12.20;99.90
57444;DHT22;43289;52.962;6.196;2023-07-22T01:29:22;12.10;99.90
57444;DHT22;43289;52.962;6.196;2023-07-22T01:31:52;11.50;99.90
57444;DHT22;43289;52.962;6.196;2023-07-22T01:58:48;11.40;99.90
57444;DHT22;43289;52.962;6.196;2023-07-22T02:01:13;11.00;99.90
57444;DHT22;43289;52.962;6.196;2023-07-22T02:03:41;10.90;99.90
57444;DHT22;43289;52.962;6.196;2023-07-22T02:06:06;10.90;99.90
57444;DHT22;43289;52.962;6.196;2023-07-22T02:30:36;10.90;99.90
57444;DHT22;43289;52.962;6.196;2023-07-22T02:33:06;11.00;99.90
57444;DHT22;43289;52.962;6.196;2023-07-22T02:37:58;11.00;99.90
57444;DHT22;43289;52.962;6.196;2023-07-22T03:36:34;11.10;99.90
57444;DHT22;43289;52.962;6.196;2023-07-22T03:43:54;11.60;99.90
57444;DHT22;43289;52.962;6.196;2023-07-22T03:46:19;11.70;99.90
57444;DHT22;43289;52.962;6.196;2023-07-22T04:03:21;11.80;99.90
57444;DHT22;43289;52.962;6.196;2023-07-22T04:05:54;12.20;99.90
57444;DHT22;43289;52.962;6.196;2023-07-22T04:08:20;12.30;99.90
57444;DHT22;43289;52.962;6.196;2023-07-22T04:10:55;12.30;99.90
57444;DHT22;43289;52.962;6.196;2023-07-22T04:13:23;12.40;99.90
57444;DHT22;43289;52.962;6.196;2023-07-22T04:15:49;12.40;99.90
57444;DHT22;43289;52.962;6.196;2023-07-22T04:18:15;12.50;99.90
57444;DHT22;43289;52.962;6.196;2023-07-22T04:20:41;12.50;99.90
57444;DHT22;43289;52.962;6.196;2023-07-22T04:23:07;12.50;99.90
57444;DHT22;43289;52.962;6.196;2023-07-22T04:25:32;12.60;99.90
57444;DHT22;43289;52.962;6.196;2023-07-22T04:27:58;12.60;99.90
57444;DHT22;43289;52.962;6.196;2023-07-22T04:30:23;12.70;99.90
57444;DHT22;43289;52.962;6.196;2023-07-22T04:32:49;12.70;99.90
57444;DHT22;43289;52.962;6.196;2023-07-22T04:35:16;12.80;99.90
57444;DHT22;43289;52.962;6.196;2023-07-22T04:37:45;12.80;99.90
57444;DHT22;43289;52.962;6.196;2023-07-22T04:40:11;12.90;99.90
57444;DHT22;43289;52.962;6.196;2023-07-22T04:42:40;12.90;99.90
57444;DHT22;43289;52.962;6.196;2023-07-22T04:45:08;13.00;99.90
57444;DHT22;43289;52.962;6.196;2023-07-22T04:47:35;13.00;99.90
57444;DHT22;43289;52.962;6.196;2023-07-22T04:50:01;13.00;99.90
57444;DHT22;43289;52.962;6.196;2023-07-22T04:52:26;13.10;99.90
57444;DHT22;43289;52.962;6.196;2023-07-22T04:54:52;13.10;99.90
57444;DHT22;43289;52.962;6.196;2023-07-22T04:57:20;13.10;99.90
57444;DHT22;43289;52.962;6.196;2023-07-22T04:59:45;13.20;99.90
57444;DHT22;43289;52.962;6.196;2023-07-22T05:02:12;13.20;99.90
57444;DHT22;43289;52.962;6.196;2023-07-22T05:04:38;13.30;99.90
57444;DHT22;43289;52.962;6.196;2023-07-22T05:07:04;13.30;99.90
57444;DHT22;43289;52.962;6.196;2023-07-22T05:09:29;13.40;99.90
57444;DHT22;43289;52.962;6.196;2023-07-22T05:11:55;13.40;99.90
57444;DHT22;43289;52.962;6.196;2023-07-22T05:14:20;13.50;99.90
57444;DHT22;43289;52.962;6.196;2023-07-22T05:16:46;13.60;99.90
57444;DHT22;43289;52.962;6.196;2023-07-22T05:19:12;13.60;99.90
57444;DHT22;43289;52.962;6.196;2023-07-22T05:21:38;13.70;99.90
57444;DHT22;43289;52.962;6.196;2023-07-22T05:24:04;13.80;99.90
57444;DHT22;43289;52.962;6.196;2023-07-22T05:26:29;13.90;99.90
57444;DHT22;43289;52.962;6.196;2023-07-22T05:28:56;14.00;99.90
57444;DHT22;43289;52.962;6.196;2023-07-22T05:31:22;14.00;99.90
57444;DHT22;43289;52.962;6.196;2023-07-22T05:33:47;14.10;99.90
57444;DHT22;43289;52.962;6.196;2023-07-22T05:36:13;14.20;99.90
57444;DHT22;43289;52.962;6.196;2023-07-22T05:38:39;14.30;99.90
57444;DHT22;43289;52.962;6.196;2023-07-22T05:41:04;14.40;99.90
57444;DHT22;43289;52.962;6.196;2023-07-22T05:43:30;14.40;99.90
57444;DHT22;43289;52.962;6.196;2023-07-22T05:45:55;14.60;99.90
57444;DHT22;43289;52.962;6.196;2023-07-22T05:48:21;14.60;99.90
57444;DHT22;43289;52.962;6.196;2023-07-22T05:50:47;14.70;99.90
57444;DHT22;43289;52.962;6.196;2023-07-22T05:53:13;14.80;99.90
57444;DHT22;43289;52.962;6.196;2023-07-22T05:55:39;14.80;99.90
57444;DHT22;43289;52.962;6.196;2023-07-22T05:58:04;14.80;99.90
57444;DHT22;43289;52.962;6.196;2023-07-22T06:00:33;14.90;99.90
57444;DHT22;43289;52.962;6.196;2023-07-22T06:02:59;14.90;99.90
57444;DHT22;43289;52.962;6.196;2023-07-22T06:05:25;15.00;99.90
57444;DHT22;43289;52.962;6.196;2023-07-22T06:07:50;15.00;99.90
57444;DHT22;43289;52.962;6.196;2023-07-22T06:10:16;15.00;99.90
57444;DHT22;43289;52.962;6.196;2023-07-22T06:12:41;15.10;99.90
57444;DHT22;43289;52.962;6.196;2023-07-22T06:15:07;15.10;99.90
57444;DHT22;43289;52.962;6.196;2023-07-22T06:17:33;15.30;99.90
57444;DHT22;43289;52.962;6.196;2023-07-22T06:19:59;15.40;99.90
57444;DHT22;43289;52.962;6.196;2023-07-22T06:22:24;15.60;99.90
57444;DHT22;43289;52.962;6.196;2023-07-22T06:24:50;15.80;99.90
57444;DHT22;43289;52.962;6.196;2023-07-22T06:27:15;15.90;99.90
57444;DHT22;43289;52.962;6.196;2023-07-22T06:29:41;16.00;99.90
57444;DHT22;43289;52.962;6.196;2023-07-22T06:32:07;16.10;99.90
57444;DHT22;43289;52.962;6.196;2023-07-22T06:34:32;16.10;99.90
57444;DHT22;43289;52.962;6.196;2023-07-22T06:36:59;16.10;99.90
57444;DHT22;43289;52.962;6.196;2023-07-22T06:39:25;16.10;99.90
57444;DHT22;43289;52.962;6.196;2023-07-22T06:41:50;16.10;99.90
57444;DHT22;43289;52.962;6.196;2023-07-22T06:44:16;16.10;99.90
57444;DHT22;43289;52.962;6.196;2023-07-22T06:46:41;16.10;99.90
57444;DHT22;43289;52.962;6.196;2023-07-22T06:49:07;16.10;99.90
57444;DHT22;43289;52.962;6.196;2023-07-22T06:51:32;16.20;99.90
57444;DHT22;43289;52.962;6.196;2023-07-22T06:53:58;16.20;99.90
57444;DHT22;43289;52.962;6.196;2023-07-22T06:56:23;16.20;99.90
57444;DHT22;43289;52.962;6.196;2023-07-22T06:58:50;16.20;99.90
57444;DHT22;43289;52.962;6.196;2023-07-22T07:01:16;16.30;99.90
57444;DHT22;43289;52.962;6.196;2023-07-22T07:03:42;16.30;99.90
57444;DHT22;43289;52.962;6.196;2023-07-22T07:06:07;16.40;99.90
57444;DHT22;43289;52.962;6.196;2023-07-22T07:08:33;16.40;99.90
57444;DHT22;43289;52.962;6.196;2023-07-22T07:10:59;16.50;99.90
57444;DHT22;43289;52.962;6.196;2023-07-22T07:13:26;16.50;99.90
57444;DHT22;43289;52.962;6.196;2023-07-22T07:15:52;16.50;99.90
57444;DHT22;43289;52.962;6.196;2023-07-22T07:18:17;16.50;99.90
57444;DHT22;43289;52.962;6.196;2023-07-22T07:20:43;16.60;99.90
57444;DHT22;43289;52.962;6.196;2023-07-22T07:23:09;16.70;99.90
57444;DHT22;43289;52.962;6.196;2023-07-22T07:25:38;16.80;99.90
57444;DHT22;43289;52.962;6.196;2023-07-22T07:28:04;16.90;99.90
57444;DHT22;43289;52.962;6.196;2023-07-22T07:30:31;17.00;99.90
57444;DHT22;43289;52.962;6.196;2023-07-22T07:32:56;17.10;99.90
57444;DHT22;43289;52.962;6.196;2023-07-22T07:35:22;17.20;99.90
57444;DHT22;43289;52.962;6.196;2023-07-22T07:37:48;17.30;99.90
57444;DHT22;43289;52.962;6.196;2023-07-22T07:40:13;17.40;99.90
57444;DHT22;43289;52.962;6.196;2023-07-22T07:42:39;17.50;99.90
57444;DHT22;43289;52.962;6.196;2023-07-22T07:45:05;17.50;99.90
57444;DHT22;43289;52.962;6.196;2023-07-22T07:47:31;17.50;99.90
57444;DHT22;43289;52.962;6.196;2023-07-22T07:49:58;17.60;99.90
57444;DHT22;43289;52.962;6.196;2023-07-22T07:52:26;17.80;99.90
57444;DHT22;43289;52.962;6.196;2023-07-22T07:54:51;17.80;99.90
57444;DHT22;43289;52.962;6.196;2023-07-22T07:57:17;18.00;99.90
57444;DHT22;43289;52.962;6.196;2023-07-22T07:59:42;18.10;99.90
57444;DHT22;43289;52.962;6.196;2023-07-22T08:02:08;18.30;99.90
57444;DHT22;43289;52.962;6.196;2023-07-22T08:04:35;18.20;99.90
57444;DHT22;43289;52.962;6.196;2023-07-22T08:07:01;18.30;99.90
57444;DHT22;43289;52.962;6.196;2023-07-22T08:09:28;18.30;99.90
57444;DHT22;43289;52.962;6.196;2023-07-22T08:11:53;18.20;99.90
57444;DHT22;43289;52.962;6.196;2023-07-22T08:14:19;18.30;99.90
57444;DHT22;43289;52.962;6.196;2023-07-22T08:16:44;18.20;99.90
57444;DHT22;43289;52.962;6.196;2023-07-22T08:19:10;18.10;99.90
57444;DHT22;43289;52.962;6.196;2023-07-22T08:21:36;18.00;99.90
57444;DHT22;43289;52.962;6.196;2023-07-22T08:24:02;17.90;99.90
57444;DHT22;43289;52.962;6.196;2023-07-22T08:26:27;17.90;99.90
57444;DHT22;43289;52.962;6.196;2023-07-22T08:28:53;17.80;99.90
57444;DHT22;43289;52.962;6.196;2023-07-22T08:31:19;17.60;99.90
57444;DHT22;43289;52.962;6.196;2023-07-22T08:33:44;17.50;99.90
57444;DHT22;43289;52.962;6.196;2023-07-22T08:36:10;17.20;99.90
57444;DHT22;43289;52.962;6.196;2023-07-22T08:38:35;17.00;99.90
57444;DHT22;43289;52.962;6.196;2023-07-22T08:41:01;16.90;99.90
57444;DHT22;43289;52.962;6.196;2023-07-22T08:43:28;16.70;99.90
57444;DHT22;43289;52.962;6.196;2023-07-22T08:45:54;16.60;99.90
57444;DHT22;43289;52.962;6.196;2023-07-22T08:48:25;16.50;99.90
57444;DHT22;43289;52.962;6.196;2023-07-22T08:51:18;16.40;99.90
57444;DHT22;43289;52.962;6.196;2023-07-22T08:53:44;16.40;99.90
57444;DHT22;43289;52.962;6.196;2023-07-22T08:56:11;16.50;99.90
57444;DHT22;43289;52.962;6.196;2023-07-22T08:58:37;16.50;99.90
57444;DHT22;43289;52.962;6.196;2023-07-22T09:01:04;16.60;99.90
57444;DHT22;43289;52.962;6.196;2023-07-22T09:03:31;16.60;99.90
57444;DHT22;43289;52.962;6.196;2023-07-22T09:05:57;16.80;99.90
57444;DHT22;43289;52.962;6.196;2023-07-22T09:08:26;16.90;99.90
57444;DHT22;43289;52.962;6.196;2023-07-22T09:10:53;17.00;99.90
57444;DHT22;43289;52.962;6.196;2023-07-22T09:13:19;17.10;99.90
57444;DHT22;43289;52.962;6.196;2023-07-22T09:15:46;17.10;99.90
57444;DHT22;43289;52.962;6.196;2023-07-22T09:18:13;17.20;99.90
57444;DHT22;43289;52.962;6.196;2023-07-22T09:20:40;17.30;99.90
57444;DHT22;43289;52.962;6.196;2023-07-22T09:23:07;17.40;99.90
57444;DHT22;43289;52.962;6.196;2023-07-22T09:25:33;17.50;99.90
57444;DHT22;43289;52.962;6.196;2023-07-22T09:27:59;17.50;99.90
57444;DHT22;43289;52.962;6.196;2023-07-22T09:30:28;17.50;99.90
57444;DHT22;43289;52.962;6.196;2023-07-22T09:32:56;17.50;99.90
57444;DHT22;43289;52.962;6.196;2023-07-22T09:35:27;17.40;99.90
57444;DHT22;43289;52.962;6.196;2023-07-22T09:37:55;17.40;99.90
57444;DHT22;43289;52.962;6.196;2023-07-22T09:40:25;17.50;99.90
57444;DHT22;43289;52.962;6.196;2023-07-22T09:42:55;17.50;99.90
57444;DHT22;43289;52.962;6.196;2023-07-22T09:45:25;17.60;99.90
57444;DHT22;43289;52.962;6.196;2023-07-22T09:47:55;17.60;99.90
57444;DHT22;43289;52.962;6.196;2023-07-22T09:50:25;17.60;99.90
57444;DHT22;43289;52.962;6.196;2023-07-22T09:52:53;17.70;99.90
57444;DHT22;43289;52.962;6.196;2023-07-22T09:55:21;17.60;99.90
57444;DHT22;43289;52.962;6.196;2023-07-22T09:58:00;17.60;99.90
57444;DHT22;43289;52.962;6.196;2023-07-22T10:00:33;17.60;99.90
57444;DHT22;43289;52.962;6.196;2023-07-22T10:03:01;17.60;99.90
57444;DHT22;43289;52.962;6.196;2023-07-22T10:05:34;17.50;99.90
57444;DHT22;43289;52.962;6.196;2023-07-22T10:08:01;17.50;99.90
57444;DHT22;43289;52.962;6.196;2023-07-22T10:10:32;17.50;99.90
57444;DHT22;43289;52.962;6.196;2023-07-22T10:12:58;17.50;99.90
57444;DHT22;43289;52.962;6.196;2023-07-22T10:15:27;17.50;99.90
57444;DHT22;43289;52.962;6.196;2023-07-22T10:17:56;17.50;99.90
57444;DHT22;43289;52.962;6.196;2023-07-22T10:20:23;17.40;99.90
57444;DHT22;43289;52.962;6.196;2023-07-22T10:22:50;17.50;99.90
57444;DHT22;43289;52.962;6.196;2023-07-22T10:25:20;17.60;99.90
57444;DHT22;43289;52.962;6.196;2023-07-22T10:27:48;17.50;99.90
57444;DHT22;43289;52.962;6.196;2023-07-22T10:30:16;17.50;99.90
57444;DHT22;43289;52.962;6.196;2023-07-22T10:32:46;17.40;99.90
57444;DHT22;43289;52.962;6.196;2023-07-22T10:38:14;17.20;99.90
57444;DHT22;43289;52.962;6.196;2023-07-22T10:40:51;17.10;99.90
57444;DHT22;43289;52.962;6.196;2023-07-22T10:43:18;17.00;99.90
57444;DHT22;43289;52.962;6.196;2023-07-22T10:45:53;17.00;99.90
57444;DHT22;43289;52.962;6.196;2023-07-22T10:48:19;17.00;99.90
57444;DHT22;43289;52.962;6.196;2023-07-22T10:51:04;17.00;99.90
57444;DHT22;43289;52.962;6.196;2023-07-22T10:53:30;16.90;99.90
57444;DHT22;43289;52.962;6.196;2023-07-22T10:56:16;16.90;99.90
57444;DHT22;43289;52.962;6.196;2023-07-22T11:12:12;16.80;99.90
57444;DHT22;43289;52.962;6.196;2023-07-22T11:14:41;16.80;99.90
57444;DHT22;43289;52.962;6.196;2023-07-22T11:17:10;16.70;99.90
57444;DHT22;43289;52.962;6.196;2023-07-22T11:19:37;16.80;99.90
57444;DHT22;43289;52.962;6.196;2023-07-22T11:22:04;16.80;99.90
57444;DHT22;43289;52.962;6.196;2023-07-22T11:24:35;16.80;99.90
57444;DHT22;43289;52.962;6.196;2023-07-22T11:27:05;16.90;99.90
57444;DHT22;43289;52.962;6.196;2023-07-22T11:29:31;17.00;99.90
57444;DHT22;43289;52.962;6.196;2023-07-22T11:31:56;17.00;99.90
57444;DHT22;43289;52.962;6.196;2023-07-22T11:34:24;16.90;99.90
57444;DHT22;43289;52.962;6.196;2023-07-22T11:36:51;16.90;99.90
57444;DHT22;43289;52.962;6.196;2023-07-22T11:39:20;16.80;99.90
57444;DHT22;43289;52.962;6.196;2023-07-22T11:41:47;16.80;99.90
57444;DHT22;43289;52.962;6.196;2023-07-22T11:44:14;16.70;99.90
57444;DHT22;43289;52.962;6.196;2023-07-22T11:46:56;16.70;99.90
57444;DHT22;43289;52.962;6.196;2023-07-22T11:51:49;16.70;99.90
57444;DHT22;43289;52.962;6.196;2023-07-22T11:54:15;16.70;99.90
57444;DHT22;43289;52.962;6.196;2023-07-22T11:56:42;16.80;99.90
57444;DHT22;43289;52.962;6.196;2023-07-22T11:59:08;16.90;99.90
57444;DHT22;43289;52.962;6.196;2023-07-22T12:01:34;16.80;99.90
57444;DHT22;43289;52.962;6.196;2023-07-22T12:03:59;16.70;99.90
57444;DHT22;43289;52.962;6.196;2023-07-22T12:06:26;16.60;99.90
57444;DHT22;43289;52.962;6.196;2023-07-22T12:08:53;16.50;99.90
57444;DHT22;43289;52.962;6.196;2023-07-22T12:11:20;16.40;99.90
57444;DHT22;43289;52.962;6.196;2023-07-22T12:13:46;16.40;99.90
57444;DHT22;43289;52.962;6.196;2023-07-22T12:16:21;16.40;99.90
57444;DHT22;43289;52.962;6.196;2023-07-22T12:18:48;16.40;99.90
57444;DHT22;43289;52.962;6.196;2023-07-22T12:21:14;16.40;99.90
57444;DHT22;43289;52.962;6.196;2023-07-22T12:23:41;16.40;99.90
57444;DHT22;43289;52.962;6.196;2023-07-22T12:26:07;16.40;99.90
57444;DHT22;43289;52.962;6.196;2023-07-22T12:28:33;16.40;99.90
57444;DHT22;43289;52.962;6.196;2023-07-22T12:30:59;16.50;99.90
57444;DHT22;43289;52.962;6.196;2023-07-22T12:33:25;16.40;99.90
57444;DHT22;43289;52.962;6.196;2023-07-22T12:35:55;16.40;99.90
57444;DHT22;43289;52.962;6.196;2023-07-22T12:38:21;16.50;99.90
57444;DHT22;43289;52.962;6.196;2023-07-22T12:40:46;16.60;99.90
57444;DHT22;43289;52.962;6.196;2023-07-22T12:43:12;16.60;99.90
57444;DHT22;43289;52.962;6.196;2023-07-22T12:45:37;16.70;99.90
57444;DHT22;43289;52.962;6.196;2023-07-22T12:48:03;16.80;99.90
57444;DHT22;43289;52.962;6.196;2023-07-22T12:50:31;16.80;99.90
57444;DHT22;43289;52.962;6.196;2023-07-22T12:52:57;16.80;99.90
57444;DHT22;43289;52.962;6.196;2023-07-22T12:55:23;16.70;99.90
57444;DHT22;43289;52.962;6.196;2023-07-22T12:57:48;16.70;99.90
57444;DHT22;43289;52.962;6.196;2023-07-22T13:00:14;16.80;99.90
57444;DHT22;43289;52.962;6.196;2023-07-22T13:02:40;16.80;99.90
57444;DHT22;43289;52.962;6.196;2023-07-22T13:05:06;16.90;99.90
57444;DHT22;43289;52.962;6.196;2023-07-22T13:07:32;16.90;99.90
57444;DHT22;43289;52.962;6.196;2023-07-22T13:09:58;16.90;99.90
57444;DHT22;43289;52.962;6.196;2023-07-22T13:12:26;17.00;99.90
57444;DHT22;43289;52.962;6.196;2023-07-22T13:14:54;17.20;99.90
57444;DHT22;43289;52.962;6.196;2023-07-22T13:17:20;17.30;99.90
57444;DHT22;43289;52.962;6.196;2023-07-22T13:19:46;17.60;99.90
57444;DHT22;43289;52.962;6.196;2023-07-22T13:22:11;17.70;99.90
57444;DHT22;43289;52.962;6.196;2023-07-22T13:24:37;17.90;99.90
57444;DHT22;43289;52.962;6.196;2023-07-22T13:27:03;18.00;99.90
57444;DHT22;43289;52.962;6.196;2023-07-22T13:29:31;18.20;99.90
57444;DHT22;43289;52.962;6.196;2023-07-22T13:31:57;18.30;99.90
57444;DHT22;43289;52.962;6.196;2023-07-22T13:34:22;18.40;99.90
57444;DHT22;43289;52.962;6.196;2023-07-22T13:36:48;18.40;99.90
57444;DHT22;43289;52.962;6.196;2023-07-22T13:39:13;18.40;99.90
57444;DHT22;43289;52.962;6.196;2023-07-22T13:41:39;18.60;99.90
57444;DHT22;43289;52.962;6.196;2023-07-22T13:44:06;18.80;99.90
57444;DHT22;43289;52.962;6.196;2023-07-22T13:46:31;18.90;99.90
57444;DHT22;43289;52.962;6.196;2023-07-22T13:48:57;19.20;99.90
57444;DHT22;43289;52.962;6.196;2023-07-22T13:51:23;19.60;99.90
57444;DHT22;43289;52.962;6.196;2023-07-22T13:53:48;20.10;99.90
57444;DHT22;43289;52.962;6.196;2023-07-22T13:56:14;20.30;99.90
57444;DHT22;43289;52.962;6.196;2023-07-22T13:58:39;20.30;99.90
57444;DHT22;43289;52.962;6.196;2023-07-22T14:01:05;20.00;99.90
57444;DHT22;43289;52.962;6.196;2023-07-22T14:03:30;20.00;99.90
57444;DHT22;43289;52.962;6.196;2023-07-22T14:05:57;19.80;99.90
57444;DHT22;43289;52.962;6.196;2023-07-22T14:08:22;19.80;99.90
57444;DHT22;43289;52.962;6.196;2023-07-22T14:10:48;19.50;99.90
57444;DHT22;43289;52.962;6.196;2023-07-22T14:13:13;19.20;99.90
57444;DHT22;43289;52.962;6.196;2023-07-22T14:15:39;19.00;99.90
57444;DHT22;43289;52.962;6.196;2023-07-22T14:18:05;19.00;99.90
57444;DHT22;43289;52.962;6.196;2023-07-22T14:20:30;18.90;99.90
57444;DHT22;43289;52.962;6.196;2023-07-22T14:22:57;19.00;99.90
57444;DHT22;43289;52.962;6.196;2023-07-22T14:25:22;19.00;99.90
57444;DHT22;43289;52.962;6.196;2023-07-22T14:27:48;18.90;99.90
57444;DHT22;43289;52.962;6.196;2023-07-22T14:30:14;18.90;99.90
57444;DHT22;43289;52.962;6.196;2023-07-22T14:32:40;18.80;99.90
57444;DHT22;43289;52.962;6.196;2023-07-22T14:35:06;18.80;99.90
57444;DHT22;43289;52.962;6.196;2023-07-22T14:37:32;18.80;99.90
57444;DHT22;43289;52.962;6.196;2023-07-22T14:39:57;18.70;99.90
57444;DHT22;43289;52.962;6.196;2023-07-22T14:42:23;18.80;99.90
57444;DHT22;43289;52.962;6.196;2023-07-22T14:44:51;18.70;99.90
57444;DHT22;43289;52.962;6.196;2023-07-22T14:47:17;18.60;99.90
57444;DHT22;43289;52.962;6.196;2023-07-22T14:49:42;18.50;99.90
57444;DHT22;43289;52.962;6.196;2023-07-22T14:52:08;18.40;99.90
57444;DHT22;43289;52.962;6.196;2023-07-22T14:54:33;18.30;99.90
57444;DHT22;43289;52.962;6.196;2023-07-22T14:56:59;18.20;99.90
57444;DHT22;43289;52.962;6.196;2023-07-22T14:59:25;18.10;99.90
57444;DHT22;43289;52.962;6.196;2023-07-22T15:01:51;18.00;99.90
57444;DHT22;43289;52.962;6.196;2023-07-22T15:04:18;17.80;99.90
57444;DHT22;43289;52.962;6.196;2023-07-22T15:06:43;17.60;99.90
57444;DHT22;43289;52.962;6.196;2023-07-22T15:09:09;17.50;99.90
57444;DHT22;43289;52.962;6.196;2023-07-22T15:11:36;17.40;99.90
57444;DHT22;43289;52.962;6.196;2023-07-22T15:14:03;17.30;99.90
57444;DHT22;43289;52.962;6.196;2023-07-22T15:16:29;17.30;99.90
57444;DHT22;43289;52.962;6.196;2023-07-22T15:18:55;17.20;99.90
57444;DHT22;43289;52.962;6.196;2023-07-22T15:21:20;17.20;99.90
57444;DHT22;43289;52.962;6.196;2023-07-22T15:23:46;17.10;99.90
57444;DHT22;43289;52.962;6.196;2023-07-22T15:26:12;17.00;99.90
57444;DHT22;43289;52.962;6.196;2023-07-22T15:28:37;16.90;99.90
57444;DHT22;43289;52.962;6.196;2023-07-22T15:31:03;16.80;99.90
57444;DHT22;43289;52.962;6.196;2023-07-22T15:33:33;16.80;99.90
57444;DHT22;43289;52.962;6.196;2023-07-22T15:35:59;16.70;99.90
57444;DHT22;43289;52.962;6.196;2023-07-22T15:38:25;16.80;99.90
57444;DHT22;43289;52.962;6.196;2023-07-22T15:40:52;16.80;99.90
57444;DHT22;43289;52.962;6.196;2023-07-22T15:43:18;16.70;99.90
57444;DHT22;43289;52.962;6.196;2023-07-22T15:45:43;16.80;99.90
57444;DHT22;43289;52.962;6.196;2023-07-22T15:48:09;16.80;99.90
57444;DHT22;43289;52.962;6.196;2023-07-22T15:50:34;16.90;99.90
57444;DHT22;43289;52.962;6.196;2023-07-22T15:53:00;16.80;99.90
57444;DHT22;43289;52.962;6.196;2023-07-22T15:55:26;16.90;99.90
57444;DHT22;43289;52.962;6.196;2023-07-22T15:57:54;16.90;99.90
57444;DHT22;43289;52.962;6.196;2023-07-22T16:00:20;17.00;99.90
57444;DHT22;43289;52.962;6.196;2023-07-22T16:02:48;17.00;99.90
57444;DHT22;43289;52.962;6.196;2023-07-22T16:05:14;17.20;99.90
57444;DHT22;43289;52.962;6.196;2023-07-22T16:07:40;17.20;99.90
57444;DHT22;43289;52.962;6.196;2023-07-22T16:10:06;17.40;99.90
57444;DHT22;43289;52.962;6.196;2023-07-22T16:12:32;17.40;99.90
57444;DHT22;43289;52.962;6.196;2023-07-22T16:14:58;17.50;99.90
57444;DHT22;43289;52.962;6.196;2023-07-22T16:17:24;17.50;99.90
57444;DHT22;43289;52.962;6.196;2023-07-22T16:19:52;17.50;99.90
57444;DHT22;43289;52.962;6.196;2023-07-22T16:22:18;17.50;99.90
57444;DHT22;43289;52.962;6.196;2023-07-22T16:24:44;17.50;99.90
57444;DHT22;43289;52.962;6.196;2023-07-22T16:27:09;17.50;99.90
57444;DHT22;43289;52.962;6.196;2023-07-22T16:29:38;17.50;99.90
57444;DHT22;43289;52.962;6.196;2023-07-22T16:32:05;17.40;99.90
57444;DHT22;43289;52.962;6.196;2023-07-22T16:34:32;17.30;99.90
57444;DHT22;43289;52.962;6.196;2023-07-22T16:36:57;17.30;99.90
57444;DHT22;43289;52.962;6.196;2023-07-22T16:39:23;17.20;99.90
57444;DHT22;43289;52.962;6.196;2023-07-22T16:41:50;17.30;99.90
57444;DHT22;43289;52.962;6.196;2023-07-22T16:44:16;17.30;99.90
57444;DHT22;43289;52.962;6.196;2023-07-22T16:46:43;17.40;99.90
57444;DHT22;43289;52.962;6.196;2023-07-22T16:49:12;17.40;99.90
57444;DHT22;43289;52.962;6.196;2023-07-22T16:51:37;17.30;99.90
57444;DHT22;43289;52.962;6.196;2023-07-22T16:54:04;17.30;99.90
57444;DHT22;43289;52.962;6.196;2023-07-22T16:56:30;17.30;99.90
57444;DHT22;43289;52.962;6.196;2023-07-22T16:58:55;17.20;99.90
57444;DHT22;43289;52.962;6.196;2023-07-22T17:01:25;17.20;99.90
57444;DHT22;43289;52.962;6.196;2023-07-22T17:03:50;17.10;99.90
57444;DHT22;43289;52.962;6.196;2023-07-22T17:06:16;17.10;99.90
57444;DHT22;43289;52.962;6.196;2023-07-22T17:08:41;17.10;99.90
57444;DHT22;43289;52.962;6.196;2023-07-22T17:11:07;17.10;99.90
57444;DHT22;43289;52.962;6.196;2023-07-22T17:13:33;17.10;99.90
57444;DHT22;43289;52.962;6.196;2023-07-22T17:15:58;17.10;99.90
57444;DHT22;43289;52.962;6.196;2023-07-22T17:18:24;17.10;99.90
57444;DHT22;43289;52.962;6.196;2023-07-22T17:20:49;17.10;99.90
57444;DHT22;43289;52.962;6.196;2023-07-22T17:23:18;17.10;99.90
57444;DHT22;43289;52.962;6.196;2023-07-22T17:25:44;17.10;99.90
57444;DHT22;43289;52.962;6.196;2023-07-22T17:28:09;17.10;99.90
57444;DHT22;43289;52.962;6.196;2023-07-22T17:30:38;17.10;99.90
57444;DHT22;43289;52.962;6.196;2023-07-22T17:33:04;17.10;99.90
57444;DHT22;43289;52.962;6.196;2023-07-22T17:35:35;17.10;99.90
57444;DHT22;43289;52.962;6.196;2023-07-22T17:38:02;17.10;99.90
57444;DHT22;43289;52.962;6.196;2023-07-22T17:40:28;17.00;99.90
57444;DHT22;43289;52.962;6.196;2023-07-22T17:42:54;17.00;99.90
57444;DHT22;43289;52.962;6.196;2023-07-22T17:45:21;16.90;99.90
57444;DHT22;43289;52.962;6.196;2023-07-22T17:47:46;16.90;99.90
57444;DHT22;43289;52.962;6.196;2023-07-22T17:50:12;16.80;99.90
57444;DHT22;43289;52.962;6.196;2023-07-22T17:52:37;16.70;99.90
57444;DHT22;43289;52.962;6.196;2023-07-22T17:55:03;16.70;99.90
57444;DHT22;43289;52.962;6.196;2023-07-22T17:57:29;16.70;99.90
57444;DHT22;43289;52.962;6.196;2023-07-22T17:59:54;16.70;99.90
57444;DHT22;43289;52.962;6.196;2023-07-22T18:02:20;16.60;99.90
57444;DHT22;43289;52.962;6.196;2023-07-22T18:04:46;16.60;99.90
57444;DHT22;43289;52.962;6.196;2023-07-22T18:07:11;16.60;99.90
57444;DHT22;43289;52.962;6.196;2023-07-22T18:09:37;16.60;99.90
57444;DHT22;43289;52.962;6.196;2023-07-22T18:12:03;16.50;99.90
57444;DHT22;43289;52.962;6.196;2023-07-22T18:14:28;16.50;99.90
57444;DHT22;43289;52.962;6.196;2023-07-22T18:16:55;16.40;99.90
57444;DHT22;43289;52.962;6.196;2023-07-22T18:19:20;16.40;99.90
57444;DHT22;43289;52.962;6.196;2023-07-22T18:21:46;16.40;99.90
57444;DHT22;43289;52.962;6.196;2023-07-22T18:24:11;16.40;99.90
57444;DHT22;43289;52.962;6.196;2023-07-22T18:26:38;16.40;99.90
57444;DHT22;43289;52.962;6.196;2023-07-22T18:29:04;16.40;99.90
57444;DHT22;43289;52.962;6.196;2023-07-22T18:31:30;16.40;99.90
57444;DHT22;43289;52.962;6.196;2023-07-22T18:33:56;16.40;99.90
57444;DHT22;43289;52.962;6.196;2023-07-22T18:36:21;16.40;99.90
57444;DHT22;43289;52.962;6.196;2023-07-22T18:38:47;16.40;99.90
57444;DHT22;43289;52.962;6.196;2023-07-22T18:41:13;16.30;99.90
57444;DHT22;43289;52.962;6.196;2023-07-22T18:43:38;16.30;99.90
57444;DHT22;43289;52.962;6.196;2023-07-22T18:46:15;16.30;99.90
57444;DHT22;43289;52.962;6.196;2023-07-22T18:48:41;16.30;99.90
57444;DHT22;43289;52.962;6.196;2023-07-22T18:51:07;16.30;99.90
57444;DHT22;43289;52.962;6.196;2023-07-22T18:53:32;16.30;99.90
57444;DHT22;43289;52.962;6.196;2023-07-22T18:55:58;16.20;99.90
57444;DHT22;43289;52.962;6.196;2023-07-22T18:58:23;16.20;99.90